sensor_id;sensor_type;location;lat;lon;timestamp;P1;durP1;ratioP1;P2;durP2;ratioP2
49153;SDS011;49455;52.252;9.124;2023-02-15T00:02:41;15.60;;;10.77;;
49153;SDS011;49455;52.252;9.124;2023-02-15T00:07:41;17.08;;;11.23;;
49153;SDS011;49455;52.252;9.124;2023-02-15T00:12:42;16.33;;;9.75;;
49153;SDS011;49455;52.252;9.124;2023-02-15T00:17:42;15.05;;;10.63;;
49153;SDS011;49455;52.252;9.124;2023-02-15T00:22:43;18.27;;;11.25;;
49153;SDS011;49455;52.252;9.124;2023-02-15T00:27:43;15.30;;;9.80;;
49153;SDS011;49455;52.252;9.124;2023-02-15T00:32:43;17.25;;;10.90;;
49153;SDS011;49455;52.252;9.124;2023-02-15T00:37:45;16.30;;;11.27;;
49153;SDS011;49455;52.252;9.124;2023-02-15T00:42:45;16.73;;;10.88;;
49153;SDS011;49455;52.252;9.124;2023-02-15T00:47:46;17.50;;;10.57;;
49153;SDS011;49455;52.252;9.124;2023-02-15T00:52:46;18.75;;;11.77;;
49153;SDS011;49455;52.252;9.124;2023-02-15T00:57:47;19.05;;;10.50;;
49153;SDS011;49455;52.252;9.124;2023-02-15T01:02:47;20.08;;;12.07;;
49153;SDS011;49455;52.252;9.124;2023-02-15T01:07:48;19.67;;;11.88;;
49153;SDS011;49455;52.252;9.124;2023-02-15T01:12:50;18.35;;;11.10;;
49153;SDS011;49455;52.252;9.124;2023-02-15T01:22:51;18.05;;;11.38;;
49153;SDS011;49455;52.252;9.124;2023-02-15T01:27:52;22.05;;;13.32;;
49153;SDS011;49455;52.252;9.124;2023-02-15T01:32:53;20.20;;;12.60;;
49153;SDS011;49455;52.252;9.124;2023-02-15T01:37:54;20.13;;;11.65;;
49153;SDS011;49455;52.252;9.124;2023-02-15T01:58:51;21.85;;;12.35;;
49153;SDS011;49455;52.252;9.124;2023-02-15T02:04:00;21.02;;;12.20;;
49153;SDS011;49455;52.252;9.124;2023-02-15T02:09:08;18.77;;;11.75;;
49153;SDS011;49455;52.252;9.124;2023-02-15T02:14:08;21.27;;;12.80;;
49153;SDS011;49455;52.252;9.124;2023-02-15T02:24:45;19.60;;;13.15;;
49153;SDS011;49455;52.252;9.124;2023-02-15T02:35:32;22.13;;;13.07;;
49153;SDS011;49455;52.252;9.124;2023-02-15T02:46:22;21.92;;;13.32;;
49153;SDS011;49455;52.252;9.124;2023-02-15T02:51:29;23.20;;;14.88;;
49153;SDS011;49455;52.252;9.124;2023-02-15T02:56:53;28.55;;;15.38;;
49153;SDS011;49455;52.252;9.124;2023-02-15T03:07:26;27.80;;;15.80;;
49153;SDS011;49455;52.252;9.124;2023-02-15T03:12:32;25.90;;;14.95;;
49153;SDS011;49455;52.252;9.124;2023-02-15T03:17:40;25.75;;;14.55;;
49153;SDS011;49455;52.252;9.124;2023-02-15T03:28:21;27.65;;;16.13;;
49153;SDS011;49455;52.252;9.124;2023-02-15T03:33:27;28.45;;;17.23;;
49153;SDS011;49455;52.252;9.124;2023-02-15T03:38:34;26.30;;;16.80;;
49153;SDS011;49455;52.252;9.124;2023-02-15T03:48:56;32.10;;;17.73;;
49153;SDS011;49455;52.252;9.124;2023-02-15T03:54:06;29.80;;;16.98;;
49153;SDS011;49455;52.252;9.124;2023-02-15T03:59:09;29.98;;;17.30;;
49153;SDS011;49455;52.252;9.124;2023-02-15T04:04:19;29.10;;;17.23;;
49153;SDS011;49455;52.252;9.124;2023-02-15T04:09:22;36.33;;;19.02;;
49153;SDS011;49455;52.252;9.124;2023-02-15T04:14:22;29.23;;;18.65;;
49153;SDS011;49455;52.252;9.124;2023-02-15T04:19:23;32.47;;;18.00;;
49153;SDS011;49455;52.252;9.124;2023-02-15T04:24:23;30.77;;;18.20;;
49153;SDS011;49455;52.252;9.124;2023-02-15T04:29:24;31.37;;;17.83;;
49153;SDS011;49455;52.252;9.124;2023-02-15T04:39:26;34.83;;;18.55;;
49153;SDS011;49455;52.252;9.124;2023-02-15T04:44:26;30.75;;;18.40;;
49153;SDS011;49455;52.252;9.124;2023-02-15T04:49:26;33.53;;;18.90;;
49153;SDS011;49455;52.252;9.124;2023-02-15T04:54:27;33.23;;;19.37;;
49153;SDS011;49455;52.252;9.124;2023-02-15T04:59:27;35.13;;;19.08;;
49153;SDS011;49455;52.252;9.124;2023-02-15T05:04:28;30.45;;;18.73;;
49153;SDS011;49455;52.252;9.124;2023-02-15T05:09:28;33.75;;;18.92;;
49153;SDS011;49455;52.252;9.124;2023-02-15T05:14:28;31.73;;;18.80;;
49153;SDS011;49455;52.252;9.124;2023-02-15T05:19:29;33.28;;;19.63;;
49153;SDS011;49455;52.252;9.124;2023-02-15T05:24:29;31.38;;;18.42;;
49153;SDS011;49455;52.252;9.124;2023-02-15T05:29:30;34.37;;;19.67;;
49153;SDS011;49455;52.252;9.124;2023-02-15T05:34:30;33.20;;;18.73;;
49153;SDS011;49455;52.252;9.124;2023-02-15T05:39:31;34.93;;;19.50;;
49153;SDS011;49455;52.252;9.124;2023-02-15T05:44:31;34.75;;;19.67;;
49153;SDS011;49455;52.252;9.124;2023-02-15T05:49:31;32.37;;;18.87;;
49153;SDS011;49455;52.252;9.124;2023-02-15T05:54:32;35.08;;;19.92;;
49153;SDS011;49455;52.252;9.124;2023-02-15T05:59:32;32.85;;;17.98;;
49153;SDS011;49455;52.252;9.124;2023-02-15T06:04:33;34.97;;;18.53;;
49153;SDS011;49455;52.252;9.124;2023-02-15T06:09:33;32.57;;;17.77;;
49153;SDS011;49455;52.252;9.124;2023-02-15T06:14:33;33.90;;;18.60;;
49153;SDS011;49455;52.252;9.124;2023-02-15T06:19:34;32.60;;;18.17;;
49153;SDS011;49455;52.252;9.124;2023-02-15T06:24:34;33.07;;;18.00;;
49153;SDS011;49455;52.252;9.124;2023-02-15T06:29:35;33.80;;;19.33;;
49153;SDS011;49455;52.252;9.124;2023-02-15T06:34:35;30.50;;;17.10;;
49153;SDS011;49455;52.252;9.124;2023-02-15T06:39:36;31.87;;;17.73;;
49153;SDS011;49455;52.252;9.124;2023-02-15T06:44:36;32.63;;;18.00;;
49153;SDS011;49455;52.252;9.124;2023-02-15T06:49:36;29.10;;;17.30;;
49153;SDS011;49455;52.252;9.124;2023-02-15T06:54:37;28.10;;;17.47;;
49153;SDS011;49455;52.252;9.124;2023-02-15T06:59:37;27.20;;;15.73;;
49153;SDS011;49455;52.252;9.124;2023-02-15T07:04:38;25.87;;;15.60;;
49153;SDS011;49455;52.252;9.124;2023-02-15T07:09:38;29.10;;;16.47;;
49153;SDS011;49455;52.252;9.124;2023-02-15T07:14:39;29.53;;;17.03;;
49153;SDS011;49455;52.252;9.124;2023-02-15T07:19:39;28.37;;;16.23;;
49153;SDS011;49455;52.252;9.124;2023-02-15T07:24:40;26.23;;;15.50;;
49153;SDS011;49455;52.252;9.124;2023-02-15T07:29:40;29.47;;;16.80;;
49153;SDS011;49455;52.252;9.124;2023-02-15T07:34:43;29.27;;;17.08;;
49153;SDS011;49455;52.252;9.124;2023-02-15T07:39:44;28.00;;;16.37;;
49153;SDS011;49455;52.252;9.124;2023-02-15T07:44:44;33.53;;;16.97;;
49153;SDS011;49455;52.252;9.124;2023-02-15T07:49:44;28.77;;;15.80;;
49153;SDS011;49455;52.252;9.124;2023-02-15T07:54:45;30.23;;;17.03;;
49153;SDS011;49455;52.252;9.124;2023-02-15T07:59:45;30.97;;;17.97;;
49153;SDS011;49455;52.252;9.124;2023-02-15T08:04:45;27.93;;;16.50;;
49153;SDS011;49455;52.252;9.124;2023-02-15T08:09:46;27.67;;;16.03;;
49153;SDS011;49455;52.252;9.124;2023-02-15T08:14:46;27.67;;;15.40;;
49153;SDS011;49455;52.252;9.124;2023-02-15T08:19:46;31.20;;;18.00;;
49153;SDS011;49455;52.252;9.124;2023-02-15T08:24:47;28.60;;;16.27;;
49153;SDS011;49455;52.252;9.124;2023-02-15T08:29:47;25.27;;;14.43;;
49153;SDS011;49455;52.252;9.124;2023-02-15T08:34:48;23.87;;;13.77;;
49153;SDS011;49455;52.252;9.124;2023-02-15T08:39:48;24.97;;;14.37;;
49153;SDS011;49455;52.252;9.124;2023-02-15T08:44:49;25.67;;;14.60;;
49153;SDS011;49455;52.252;9.124;2023-02-15T08:49:49;25.23;;;14.80;;
49153;SDS011;49455;52.252;9.124;2023-02-15T08:54:50;24.70;;;14.57;;
49153;SDS011;49455;52.252;9.124;2023-02-15T08:59:50;27.57;;;15.53;;
49153;SDS011;49455;52.252;9.124;2023-02-15T09:04:50;26.03;;;15.33;;
49153;SDS011;49455;52.252;9.124;2023-02-15T09:09:51;26.57;;;15.33;;
49153;SDS011;49455;52.252;9.124;2023-02-15T09:14:51;27.47;;;16.43;;
49153;SDS011;49455;52.252;9.124;2023-02-15T09:19:52;25.73;;;15.03;;
49153;SDS011;49455;52.252;9.124;2023-02-15T09:24:52;28.10;;;16.17;;
49153;SDS011;49455;52.252;9.124;2023-02-15T09:29:52;26.90;;;16.37;;
49153;SDS011;49455;52.252;9.124;2023-02-15T09:34:53;29.37;;;16.90;;
49153;SDS011;49455;52.252;9.124;2023-02-15T09:39:53;24.43;;;14.33;;
49153;SDS011;49455;52.252;9.124;2023-02-15T10:06:05;25.15;;;14.98;;
49153;SDS011;49455;52.252;9.124;2023-02-15T10:11:17;25.63;;;15.20;;
49153;SDS011;49455;52.252;9.124;2023-02-15T10:22:06;21.63;;;13.35;;
49153;SDS011;49455;52.252;9.124;2023-02-15T10:27:18;23.30;;;13.57;;
49153;SDS011;49455;52.252;9.124;2023-02-15T10:42:46;25.13;;;14.55;;
49153;SDS011;49455;52.252;9.124;2023-02-15T10:58:59;25.33;;;14.63;;
49153;SDS011;49455;52.252;9.124;2023-02-15T11:09:16;23.13;;;14.20;;
49153;SDS011;49455;52.252;9.124;2023-02-15T11:20:08;24.95;;;14.32;;
49153;SDS011;49455;52.252;9.124;2023-02-15T11:25:26;24.80;;;14.13;;
49153;SDS011;49455;52.252;9.124;2023-02-15T11:30:39;27.33;;;15.00;;
49153;SDS011;49455;52.252;9.124;2023-02-15T11:35:47;22.83;;;14.20;;
49153;SDS011;49455;52.252;9.124;2023-02-15T11:40:53;29.10;;;14.05;;
49153;SDS011;49455;52.252;9.124;2023-02-15T11:45:56;23.88;;;14.13;;
49153;SDS011;49455;52.252;9.124;2023-02-15T11:50:56;24.55;;;14.45;;
49153;SDS011;49455;52.252;9.124;2023-02-15T11:55:57;24.33;;;13.80;;
49153;SDS011;49455;52.252;9.124;2023-02-15T12:06:41;22.95;;;13.75;;
49153;SDS011;49455;52.252;9.124;2023-02-15T12:11:52;23.35;;;14.85;;
49153;SDS011;49455;52.252;9.124;2023-02-15T12:16:53;22.65;;;13.38;;
49153;SDS011;49455;52.252;9.124;2023-02-15T12:21:56;24.05;;;14.20;;
49153;SDS011;49455;52.252;9.124;2023-02-15T12:26:59;18.88;;;12.38;;
49153;SDS011;49455;52.252;9.124;2023-02-15T12:32:03;23.52;;;13.38;;
49153;SDS011;49455;52.252;9.124;2023-02-15T12:37:07;22.05;;;13.85;;
49153;SDS011;49455;52.252;9.124;2023-02-15T12:42:14;24.42;;;13.77;;
49153;SDS011;49455;52.252;9.124;2023-02-15T13:02:28;26.85;;;15.57;;
49153;SDS011;49455;52.252;9.124;2023-02-15T13:07:34;26.00;;;14.98;;
49153;SDS011;49455;52.252;9.124;2023-02-15T13:12:36;31.60;;;16.67;;
49153;SDS011;49455;52.252;9.124;2023-02-15T13:17:37;25.90;;;14.93;;
49153;SDS011;49455;52.252;9.124;2023-02-15T13:22:39;25.45;;;15.48;;
49153;SDS011;49455;52.252;9.124;2023-02-15T13:27:43;29.88;;;16.50;;
49153;SDS011;49455;52.252;9.124;2023-02-15T13:32:44;25.00;;;15.55;;
49153;SDS011;49455;52.252;9.124;2023-02-15T13:37:55;24.88;;;14.82;;
49153;SDS011;49455;52.252;9.124;2023-02-15T13:48:33;23.53;;;14.23;;
49153;SDS011;49455;52.252;9.124;2023-02-15T13:54:17;23.23;;;14.38;;
49153;SDS011;49455;52.252;9.124;2023-02-15T14:05:14;27.88;;;16.73;;
49153;SDS011;49455;52.252;9.124;2023-02-15T14:16:06;31.13;;;16.73;;
49153;SDS011;49455;52.252;9.124;2023-02-15T14:21:39;26.20;;;15.27;;
49153;SDS011;49455;52.252;9.124;2023-02-15T14:26:50;35.88;;;18.23;;
49153;SDS011;49455;52.252;9.124;2023-02-15T14:31:53;28.27;;;16.42;;
49153;SDS011;49455;52.252;9.124;2023-02-15T14:36:57;24.33;;;15.40;;
49153;SDS011;49455;52.252;9.124;2023-02-15T14:42:05;23.27;;;15.05;;
49153;SDS011;49455;52.252;9.124;2023-02-15T14:47:19;23.98;;;15.65;;
49153;SDS011;49455;52.252;9.124;2023-02-15T14:52:25;25.27;;;15.18;;
49153;SDS011;49455;52.252;9.124;2023-02-15T14:57:26;28.45;;;16.52;;
49153;SDS011;49455;52.252;9.124;2023-02-15T15:02:47;31.40;;;17.30;;
49153;SDS011;49455;52.252;9.124;2023-02-15T15:07:50;24.00;;;14.85;;
49153;SDS011;49455;52.252;9.124;2023-02-15T15:12:54;21.75;;;14.10;;
49153;SDS011;49455;52.252;9.124;2023-02-15T15:18:08;28.90;;;15.93;;
49153;SDS011;49455;52.252;9.124;2023-02-15T15:39:02;21.23;;;14.33;;
49153;SDS011;49455;52.252;9.124;2023-02-15T15:49:58;22.92;;;14.50;;
49153;SDS011;49455;52.252;9.124;2023-02-15T15:55:04;24.52;;;14.73;;
49153;SDS011;49455;52.252;9.124;2023-02-15T16:05:38;24.15;;;15.00;;
49153;SDS011;49455;52.252;9.124;2023-02-15T16:10:38;23.88;;;15.38;;
49153;SDS011;49455;52.252;9.124;2023-02-15T16:15:44;24.17;;;15.00;;
49153;SDS011;49455;52.252;9.124;2023-02-15T16:20:54;21.40;;;14.05;;
49153;SDS011;49455;52.252;9.124;2023-02-15T16:31:34;21.30;;;13.98;;
49153;SDS011;49455;52.252;9.124;2023-02-15T16:36:34;22.15;;;13.73;;
49153;SDS011;49455;52.252;9.124;2023-02-15T16:41:35;26.52;;;15.02;;
49153;SDS011;49455;52.252;9.124;2023-02-15T16:46:37;21.17;;;13.20;;
49153;SDS011;49455;52.252;9.124;2023-02-15T16:51:41;23.23;;;14.15;;
49153;SDS011;49455;52.252;9.124;2023-02-15T16:56:43;24.23;;;14.05;;
49153;SDS011;49455;52.252;9.124;2023-02-15T17:01:44;21.08;;;13.18;;
49153;SDS011;49455;52.252;9.124;2023-02-15T17:06:57;23.48;;;13.63;;
49153;SDS011;49455;52.252;9.124;2023-02-15T17:11:59;21.55;;;13.73;;
49153;SDS011;49455;52.252;9.124;2023-02-15T17:22:16;24.10;;;14.55;;
49153;SDS011;49455;52.252;9.124;2023-02-15T17:27:22;24.55;;;14.98;;
49153;SDS011;49455;52.252;9.124;2023-02-15T17:32:28;24.42;;;14.15;;
49153;SDS011;49455;52.252;9.124;2023-02-15T17:42:38;22.50;;;13.55;;
49153;SDS011;49455;52.252;9.124;2023-02-15T17:47:38;25.50;;;14.02;;
49153;SDS011;49455;52.252;9.124;2023-02-15T17:52:39;23.27;;;14.73;;
49153;SDS011;49455;52.252;9.124;2023-02-15T17:57:39;34.28;;;18.98;;
49153;SDS011;49455;52.252;9.124;2023-02-15T18:02:39;24.10;;;13.98;;
49153;SDS011;49455;52.252;9.124;2023-02-15T18:07:40;23.20;;;13.52;;
49153;SDS011;49455;52.252;9.124;2023-02-15T18:12:41;23.55;;;15.30;;
49153;SDS011;49455;52.252;9.124;2023-02-15T18:17:42;22.35;;;14.57;;
49153;SDS011;49455;52.252;9.124;2023-02-15T18:22:44;24.60;;;14.88;;
49153;SDS011;49455;52.252;9.124;2023-02-15T18:27:45;24.85;;;15.43;;
49153;SDS011;49455;52.252;9.124;2023-02-15T18:32:46;22.20;;;14.18;;
49153;SDS011;49455;52.252;9.124;2023-02-15T18:37:48;25.08;;;16.00;;
49153;SDS011;49455;52.252;9.124;2023-02-15T18:42:49;26.20;;;15.60;;
49153;SDS011;49455;52.252;9.124;2023-02-15T18:47:49;24.90;;;15.05;;
49153;SDS011;49455;52.252;9.124;2023-02-15T18:52:50;24.52;;;15.13;;
49153;SDS011;49455;52.252;9.124;2023-02-15T18:57:51;23.48;;;14.75;;
49153;SDS011;49455;52.252;9.124;2023-02-15T19:02:54;26.33;;;15.40;;
49153;SDS011;49455;52.252;9.124;2023-02-15T19:07:56;24.77;;;15.82;;
49153;SDS011;49455;52.252;9.124;2023-02-15T19:12:58;26.48;;;14.68;;
49153;SDS011;49455;52.252;9.124;2023-02-15T19:17:59;25.13;;;15.20;;
49153;SDS011;49455;52.252;9.124;2023-02-15T19:22:59;27.30;;;14.45;;
49153;SDS011;49455;52.252;9.124;2023-02-15T19:28:00;27.77;;;15.73;;
49153;SDS011;49455;52.252;9.124;2023-02-15T19:33:10;23.45;;;14.60;;
49153;SDS011;49455;52.252;9.124;2023-02-15T19:38:19;28.90;;;16.35;;
49153;SDS011;49455;52.252;9.124;2023-02-15T19:43:25;27.35;;;16.20;;
49153;SDS011;49455;52.252;9.124;2023-02-15T19:48:25;29.10;;;16.02;;
49153;SDS011;49455;52.252;9.124;2023-02-15T19:53:27;25.65;;;15.73;;
49153;SDS011;49455;52.252;9.124;2023-02-15T20:03:28;29.55;;;17.25;;
49153;SDS011;49455;52.252;9.124;2023-02-15T20:08:29;26.27;;;16.45;;
49153;SDS011;49455;52.252;9.124;2023-02-15T20:13:30;28.02;;;16.60;;
49153;SDS011;49455;52.252;9.124;2023-02-15T20:18:31;29.92;;;16.20;;
49153;SDS011;49455;52.252;9.124;2023-02-15T20:23:34;26.60;;;15.82;;
49153;SDS011;49455;52.252;9.124;2023-02-15T20:28:35;29.40;;;17.27;;
49153;SDS011;49455;52.252;9.124;2023-02-15T20:33:35;27.70;;;15.75;;
49153;SDS011;49455;52.252;9.124;2023-02-15T20:38:36;30.92;;;16.95;;
49153;SDS011;49455;52.252;9.124;2023-02-15T20:43:38;27.85;;;16.27;;
49153;SDS011;49455;52.252;9.124;2023-02-15T20:48:38;29.63;;;17.55;;
49153;SDS011;49455;52.252;9.124;2023-02-15T20:53:39;28.70;;;17.08;;
49153;SDS011;49455;52.252;9.124;2023-02-15T20:58:39;28.45;;;17.08;;
49153;SDS011;49455;52.252;9.124;2023-02-15T21:03:40;34.75;;;18.45;;
49153;SDS011;49455;52.252;9.124;2023-02-15T21:08:40;31.20;;;17.77;;
49153;SDS011;49455;52.252;9.124;2023-02-15T21:13:41;31.38;;;18.73;;
49153;SDS011;49455;52.252;9.124;2023-02-15T21:18:42;32.58;;;17.65;;
49153;SDS011;49455;52.252;9.124;2023-02-15T21:23:42;31.55;;;18.67;;
49153;SDS011;49455;52.252;9.124;2023-02-15T21:28:43;33.63;;;19.35;;
49153;SDS011;49455;52.252;9.124;2023-02-15T21:33:43;34.90;;;19.42;;
49153;SDS011;49455;52.252;9.124;2023-02-15T21:38:44;33.05;;;18.88;;
49153;SDS011;49455;52.252;9.124;2023-02-15T21:43:45;33.10;;;18.60;;
49153;SDS011;49455;52.252;9.124;2023-02-15T21:48:46;37.97;;;20.55;;
49153;SDS011;49455;52.252;9.124;2023-02-15T21:53:46;36.00;;;19.25;;
49153;SDS011;49455;52.252;9.124;2023-02-15T21:58:47;36.40;;;19.87;;
49153;SDS011;49455;52.252;9.124;2023-02-15T22:03:48;32.97;;;17.20;;
49153;SDS011;49455;52.252;9.124;2023-02-15T22:08:49;33.08;;;18.83;;
49153;SDS011;49455;52.252;9.124;2023-02-15T22:13:49;33.47;;;17.63;;
49153;SDS011;49455;52.252;9.124;2023-02-15T22:18:50;33.63;;;17.90;;
49153;SDS011;49455;52.252;9.124;2023-02-15T22:23:50;30.10;;;17.55;;
49153;SDS011;49455;52.252;9.124;2023-02-15T22:28:51;31.67;;;17.30;;
49153;SDS011;49455;52.252;9.124;2023-02-15T22:33:51;31.27;;;17.30;;
49153;SDS011;49455;52.252;9.124;2023-02-15T22:38:52;35.15;;;18.60;;
49153;SDS011;49455;52.252;9.124;2023-02-15T22:43:53;35.92;;;18.55;;
49153;SDS011;49455;52.252;9.124;2023-02-15T22:48:53;30.77;;;17.60;;
49153;SDS011;49455;52.252;9.124;2023-02-15T22:53:54;32.22;;;18.23;;
49153;SDS011;49455;52.252;9.124;2023-02-15T22:58:56;32.13;;;17.98;;
49153;SDS011;49455;52.252;9.124;2023-02-15T23:03:59;32.67;;;18.55;;
49153;SDS011;49455;52.252;9.124;2023-02-15T23:09:00;32.88;;;17.98;;
49153;SDS011;49455;52.252;9.124;2023-02-15T23:14:00;32.88;;;18.40;;
49153;SDS011;49455;52.252;9.124;2023-02-15T23:19:01;36.60;;;19.38;;
49153;SDS011;49455;52.252;9.124;2023-02-15T23:24:21;36.15;;;20.38;;
49153;SDS011;49455;52.252;9.124;2023-02-15T23:29:25;34.13;;;19.35;;
49153;SDS011;49455;52.252;9.124;2023-02-15T23:34:26;36.22;;;20.05;;
49153;SDS011;49455;52.252;9.124;2023-02-15T23:39:28;33.72;;;18.90;;
49153;SDS011;49455;52.252;9.124;2023-02-15T23:44:29;34.88;;;18.98;;
49153;SDS011;49455;52.252;9.124;2023-02-15T23:49:29;38.13;;;20.42;;
49153;SDS011;49455;52.252;9.124;2023-02-15T23:54:30;35.55;;;19.75;;
49153;SDS011;49455;52.252;9.124;2023-02-15T23:59:30;35.30;;;20.53;;
